sensor_id;sensor_type;location;lat;lon;timestamp;P1;durP1;ratioP1;P2;durP2;ratioP2
29908;SDS011;36247;51.952;6.146;2023-05-27T00:00:36;14.95;;;4.97;;
29908;SDS011;36247;51.952;6.146;2023-05-27T00:03:03;16.90;;;5.20;;
29908;SDS011;36247;51.952;6.146;2023-05-27T00:05:29;16.80;;;5.75;;
29908;SDS011;36247;51.952;6.146;2023-05-27T00:07:54;22.48;;;5.50;;
29908;SDS011;36247;51.952;6.146;2023-05-27T00:10:20;15.70;;;5.20;;
29908;SDS011;36247;51.952;6.146;2023-05-27T00:12:46;13.35;;;5.30;;
29908;SDS011;36247;51.952;6.146;2023-05-27T00:15:11;17.50;;;6.05;;
29908;SDS011;36247;51.952;6.146;2023-05-27T00:17:37;13.20;;;5.57;;
29908;SDS011;36247;51.952;6.146;2023-05-27T00:20:04;16.60;;;6.28;;
29908;SDS011;36247;51.952;6.146;2023-05-27T00:22:38;14.02;;;4.65;;
29908;SDS011;36247;51.952;6.146;2023-05-27T00:25:04;16.88;;;6.50;;
29908;SDS011;36247;51.952;6.146;2023-05-27T00:27:34;19.35;;;5.53;;
29908;SDS011;36247;51.952;6.146;2023-05-27T00:30:00;15.88;;;5.95;;
29908;SDS011;36247;51.952;6.146;2023-05-27T00:32:25;18.70;;;5.45;;
29908;SDS011;36247;51.952;6.146;2023-05-27T00:34:50;17.27;;;5.50;;
29908;SDS011;36247;51.952;6.146;2023-05-27T00:37:16;24.77;;;6.97;;
29908;SDS011;36247;51.952;6.146;2023-05-27T00:39:41;24.02;;;5.97;;
29908;SDS011;36247;51.952;6.146;2023-05-27T00:42:08;13.35;;;5.32;;
29908;SDS011;36247;51.952;6.146;2023-05-27T00:44:38;21.80;;;5.50;;
29908;SDS011;36247;51.952;6.146;2023-05-27T00:47:04;17.35;;;5.60;;
29908;SDS011;36247;51.952;6.146;2023-05-27T00:49:33;19.20;;;5.38;;
29908;SDS011;36247;51.952;6.146;2023-05-27T00:51:59;16.08;;;5.43;;
29908;SDS011;36247;51.952;6.146;2023-05-27T00:54:25;18.10;;;5.50;;
29908;SDS011;36247;51.952;6.146;2023-05-27T00:56:51;20.17;;;6.40;;
29908;SDS011;36247;51.952;6.146;2023-05-27T00:59:17;21.70;;;5.85;;
29908;SDS011;36247;51.952;6.146;2023-05-27T01:01:44;18.98;;;5.50;;
29908;SDS011;36247;51.952;6.146;2023-05-27T01:04:10;16.95;;;5.22;;
29908;SDS011;36247;51.952;6.146;2023-05-27T01:06:42;23.30;;;6.53;;
29908;SDS011;36247;51.952;6.146;2023-05-27T01:09:42;19.30;;;5.35;;
29908;SDS011;36247;51.952;6.146;2023-05-27T01:15:15;18.10;;;6.03;;
29908;SDS011;36247;51.952;6.146;2023-05-27T01:17:43;24.25;;;5.95;;
29908;SDS011;36247;51.952;6.146;2023-05-27T01:20:13;13.20;;;5.82;;
29908;SDS011;36247;51.952;6.146;2023-05-27T01:22:43;21.50;;;7.50;;
29908;SDS011;36247;51.952;6.146;2023-05-27T01:25:09;29.73;;;6.45;;
29908;SDS011;36247;51.952;6.146;2023-05-27T01:27:35;20.10;;;5.60;;
29908;SDS011;36247;51.952;6.146;2023-05-27T01:30:07;16.63;;;6.05;;
29908;SDS011;36247;51.952;6.146;2023-05-27T01:37:46;24.70;;;6.88;;
29908;SDS011;36247;51.952;6.146;2023-05-27T01:40:13;19.95;;;5.18;;
29908;SDS011;36247;51.952;6.146;2023-05-27T01:42:40;24.10;;;6.75;;
29908;SDS011;36247;51.952;6.146;2023-05-27T01:45:10;19.20;;;5.88;;
29908;SDS011;36247;51.952;6.146;2023-05-27T01:47:38;20.35;;;5.80;;
29908;SDS011;36247;51.952;6.146;2023-05-27T01:50:04;28.27;;;6.63;;
29908;SDS011;36247;51.952;6.146;2023-05-27T01:52:34;21.13;;;7.32;;
29908;SDS011;36247;51.952;6.146;2023-05-27T01:55:03;32.22;;;9.35;;
29908;SDS011;36247;51.952;6.146;2023-05-27T01:57:30;15.88;;;6.22;;
29908;SDS011;36247;51.952;6.146;2023-05-27T01:59:56;19.88;;;6.38;;
29908;SDS011;36247;51.952;6.146;2023-05-27T02:02:22;18.95;;;5.82;;
29908;SDS011;36247;51.952;6.146;2023-05-27T02:04:50;19.25;;;5.97;;
29908;SDS011;36247;51.952;6.146;2023-05-27T02:07:16;15.98;;;6.55;;
29908;SDS011;36247;51.952;6.146;2023-05-27T02:09:45;19.75;;;5.95;;
29908;SDS011;36247;51.952;6.146;2023-05-27T02:12:11;19.27;;;6.20;;
29908;SDS011;36247;51.952;6.146;2023-05-27T02:14:38;21.67;;;7.20;;
29908;SDS011;36247;51.952;6.146;2023-05-27T02:17:04;31.92;;;7.82;;
29908;SDS011;36247;51.952;6.146;2023-05-27T02:19:30;17.48;;;5.50;;
29908;SDS011;36247;51.952;6.146;2023-05-27T02:21:56;28.02;;;6.97;;
29908;SDS011;36247;51.952;6.146;2023-05-27T02:24:21;20.65;;;6.72;;
29908;SDS011;36247;51.952;6.146;2023-05-27T02:26:48;17.83;;;6.72;;
29908;SDS011;36247;51.952;6.146;2023-05-27T02:29:15;20.35;;;6.70;;
29908;SDS011;36247;51.952;6.146;2023-05-27T02:31:41;22.73;;;6.13;;
29908;SDS011;36247;51.952;6.146;2023-05-27T02:34:08;21.95;;;7.00;;
29908;SDS011;36247;51.952;6.146;2023-05-27T02:36:34;17.10;;;6.30;;
29908;SDS011;36247;51.952;6.146;2023-05-27T02:39:00;19.27;;;6.18;;
29908;SDS011;36247;51.952;6.146;2023-05-27T02:41:26;17.30;;;6.57;;
29908;SDS011;36247;51.952;6.146;2023-05-27T02:43:51;27.83;;;6.72;;
29908;SDS011;36247;51.952;6.146;2023-05-27T02:46:17;22.48;;;7.13;;
29908;SDS011;36247;51.952;6.146;2023-05-27T02:48:43;21.33;;;7.13;;
29908;SDS011;36247;51.952;6.146;2023-05-27T02:51:09;26.50;;;7.32;;
29908;SDS011;36247;51.952;6.146;2023-05-27T02:53:34;15.63;;;6.65;;
29908;SDS011;36247;51.952;6.146;2023-05-27T02:56:00;23.42;;;6.63;;
29908;SDS011;36247;51.952;6.146;2023-05-27T02:58:26;18.42;;;7.07;;
29908;SDS011;36247;51.952;6.146;2023-05-27T03:00:51;21.88;;;6.15;;
29908;SDS011;36247;51.952;6.146;2023-05-27T03:03:17;23.60;;;6.38;;
29908;SDS011;36247;51.952;6.146;2023-05-27T03:05:44;19.83;;;6.20;;
29908;SDS011;36247;51.952;6.146;2023-05-27T03:08:10;19.63;;;7.80;;
29908;SDS011;36247;51.952;6.146;2023-05-27T03:10:38;21.30;;;7.32;;
29908;SDS011;36247;51.952;6.146;2023-05-27T03:13:04;22.80;;;8.10;;
29908;SDS011;36247;51.952;6.146;2023-05-27T03:15:33;19.77;;;6.65;;
29908;SDS011;36247;51.952;6.146;2023-05-27T03:18:02;19.10;;;6.35;;
29908;SDS011;36247;51.952;6.146;2023-05-27T03:20:30;26.70;;;7.53;;
29908;SDS011;36247;51.952;6.146;2023-05-27T03:22:56;18.58;;;6.40;;
29908;SDS011;36247;51.952;6.146;2023-05-27T03:25:22;22.48;;;7.88;;
29908;SDS011;36247;51.952;6.146;2023-05-27T03:27:51;19.17;;;5.97;;
29908;SDS011;36247;51.952;6.146;2023-05-27T03:30:19;19.92;;;6.50;;
29908;SDS011;36247;51.952;6.146;2023-05-27T03:32:48;22.27;;;6.57;;
29908;SDS011;36247;51.952;6.146;2023-05-27T03:35:17;18.73;;;6.60;;
29908;SDS011;36247;51.952;6.146;2023-05-27T03:37:45;21.88;;;7.50;;
29908;SDS011;36247;51.952;6.146;2023-05-27T03:40:11;22.60;;;8.05;;
29908;SDS011;36247;51.952;6.146;2023-05-27T03:42:37;23.02;;;7.13;;
29908;SDS011;36247;51.952;6.146;2023-05-27T03:45:03;20.58;;;6.97;;
29908;SDS011;36247;51.952;6.146;2023-05-27T03:47:32;24.83;;;7.13;;
29908;SDS011;36247;51.952;6.146;2023-05-27T03:50:02;23.60;;;6.93;;
29908;SDS011;36247;51.952;6.146;2023-05-27T03:52:29;25.05;;;6.57;;
29908;SDS011;36247;51.952;6.146;2023-05-27T03:54:55;23.23;;;7.07;;
29908;SDS011;36247;51.952;6.146;2023-05-27T03:57:20;18.23;;;6.72;;
29908;SDS011;36247;51.952;6.146;2023-05-27T03:59:48;22.10;;;8.18;;
29908;SDS011;36247;51.952;6.146;2023-05-27T04:02:14;22.98;;;7.72;;
29908;SDS011;36247;51.952;6.146;2023-05-27T04:04:40;23.13;;;7.68;;
29908;SDS011;36247;51.952;6.146;2023-05-27T04:07:08;19.75;;;6.60;;
29908;SDS011;36247;51.952;6.146;2023-05-27T04:09:34;26.10;;;8.23;;
29908;SDS011;36247;51.952;6.146;2023-05-27T04:11:59;20.58;;;6.72;;
29908;SDS011;36247;51.952;6.146;2023-05-27T04:14:25;20.20;;;7.32;;
29908;SDS011;36247;51.952;6.146;2023-05-27T04:16:51;20.73;;;7.20;;
29908;SDS011;36247;51.952;6.146;2023-05-27T04:19:18;37.63;;;8.95;;
29908;SDS011;36247;51.952;6.146;2023-05-27T04:21:43;21.55;;;7.65;;
29908;SDS011;36247;51.952;6.146;2023-05-27T04:24:09;22.00;;;7.35;;
29908;SDS011;36247;51.952;6.146;2023-05-27T04:26:34;24.35;;;6.93;;
29908;SDS011;36247;51.952;6.146;2023-05-27T04:29:00;23.52;;;7.60;;
29908;SDS011;36247;51.952;6.146;2023-05-27T04:31:27;19.23;;;7.70;;
29908;SDS011;36247;51.952;6.146;2023-05-27T04:34:00;30.50;;;9.35;;
29908;SDS011;36247;51.952;6.146;2023-05-27T04:36:26;18.77;;;7.18;;
29908;SDS011;36247;51.952;6.146;2023-05-27T04:39:03;25.55;;;8.10;;
29908;SDS011;36247;51.952;6.146;2023-05-27T04:41:33;26.90;;;8.57;;
29908;SDS011;36247;51.952;6.146;2023-05-27T04:44:22;23.25;;;7.85;;
29908;SDS011;36247;51.952;6.146;2023-05-27T04:46:49;25.40;;;7.35;;
29908;SDS011;36247;51.952;6.146;2023-05-27T04:49:14;22.95;;;8.38;;
29908;SDS011;36247;51.952;6.146;2023-05-27T04:51:41;21.70;;;6.82;;
29908;SDS011;36247;51.952;6.146;2023-05-27T04:54:09;25.05;;;7.15;;
29908;SDS011;36247;51.952;6.146;2023-05-27T04:56:34;20.25;;;6.65;;
29908;SDS011;36247;51.952;6.146;2023-05-27T04:59:03;21.58;;;7.97;;
29908;SDS011;36247;51.952;6.146;2023-05-27T05:01:33;31.23;;;8.30;;
29908;SDS011;36247;51.952;6.146;2023-05-27T05:04:30;22.35;;;8.52;;
29908;SDS011;36247;51.952;6.146;2023-05-27T05:07:00;18.92;;;6.82;;
29908;SDS011;36247;51.952;6.146;2023-05-27T05:09:26;24.95;;;7.03;;
29908;SDS011;36247;51.952;6.146;2023-05-27T05:11:52;25.73;;;7.90;;
29908;SDS011;36247;51.952;6.146;2023-05-27T05:14:18;22.27;;;7.65;;
29908;SDS011;36247;51.952;6.146;2023-05-27T05:16:44;18.35;;;7.53;;
29908;SDS011;36247;51.952;6.146;2023-05-27T05:19:09;21.05;;;7.70;;
29908;SDS011;36247;51.952;6.146;2023-05-27T05:21:38;23.30;;;7.90;;
29908;SDS011;36247;51.952;6.146;2023-05-27T05:24:05;24.20;;;7.78;;
29908;SDS011;36247;51.952;6.146;2023-05-27T05:26:34;29.80;;;7.68;;
29908;SDS011;36247;51.952;6.146;2023-05-27T05:29:03;26.73;;;8.45;;
29908;SDS011;36247;51.952;6.146;2023-05-27T05:31:28;27.45;;;7.60;;
29908;SDS011;36247;51.952;6.146;2023-05-27T05:33:54;23.58;;;8.95;;
29908;SDS011;36247;51.952;6.146;2023-05-27T05:36:21;30.73;;;9.07;;
29908;SDS011;36247;51.952;6.146;2023-05-27T05:39:00;23.70;;;7.22;;
29908;SDS011;36247;51.952;6.146;2023-05-27T05:41:26;20.63;;;7.32;;
29908;SDS011;36247;51.952;6.146;2023-05-27T05:43:52;22.20;;;8.25;;
29908;SDS011;36247;51.952;6.146;2023-05-27T05:46:18;34.78;;;8.88;;
29908;SDS011;36247;51.952;6.146;2023-05-27T05:48:43;27.02;;;7.95;;
29908;SDS011;36247;51.952;6.146;2023-05-27T05:51:13;27.85;;;7.40;;
29908;SDS011;36247;51.952;6.146;2023-05-27T05:53:43;22.17;;;7.68;;
29908;SDS011;36247;51.952;6.146;2023-05-27T05:56:09;25.65;;;8.52;;
29908;SDS011;36247;51.952;6.146;2023-05-27T05:58:44;24.50;;;8.80;;
29908;SDS011;36247;51.952;6.146;2023-05-27T06:01:10;28.63;;;8.68;;
29908;SDS011;36247;51.952;6.146;2023-05-27T06:03:39;25.08;;;7.43;;
29908;SDS011;36247;51.952;6.146;2023-05-27T06:06:09;25.35;;;7.93;;
29908;SDS011;36247;51.952;6.146;2023-05-27T06:08:49;25.13;;;7.22;;
29908;SDS011;36247;51.952;6.146;2023-05-27T06:11:16;22.55;;;7.35;;
29908;SDS011;36247;51.952;6.146;2023-05-27T06:13:43;26.63;;;7.82;;
29908;SDS011;36247;51.952;6.146;2023-05-27T06:16:12;26.83;;;7.38;;
29908;SDS011;36247;51.952;6.146;2023-05-27T06:18:38;19.02;;;8.55;;
29908;SDS011;36247;51.952;6.146;2023-05-27T06:21:04;19.02;;;7.07;;
29908;SDS011;36247;51.952;6.146;2023-05-27T06:23:43;26.58;;;7.97;;
29908;SDS011;36247;51.952;6.146;2023-05-27T06:26:14;19.85;;;8.18;;
29908;SDS011;36247;51.952;6.146;2023-05-27T06:28:45;21.40;;;8.18;;
29908;SDS011;36247;51.952;6.146;2023-05-27T06:31:13;28.83;;;8.35;;
29908;SDS011;36247;51.952;6.146;2023-05-27T06:33:42;25.80;;;8.30;;
29908;SDS011;36247;51.952;6.146;2023-05-27T06:36:08;22.92;;;7.55;;
29908;SDS011;36247;51.952;6.146;2023-05-27T06:38:35;23.83;;;7.47;;
29908;SDS011;36247;51.952;6.146;2023-05-27T06:41:02;48.15;;;9.13;;
29908;SDS011;36247;51.952;6.146;2023-05-27T06:43:29;26.73;;;8.73;;
29908;SDS011;36247;51.952;6.146;2023-05-27T06:46:22;24.77;;;8.37;;
29908;SDS011;36247;51.952;6.146;2023-05-27T06:49:08;29.10;;;8.02;;
29908;SDS011;36247;51.952;6.146;2023-05-27T06:51:37;27.25;;;8.43;;
29908;SDS011;36247;51.952;6.146;2023-05-27T06:54:03;24.38;;;7.50;;
29908;SDS011;36247;51.952;6.146;2023-05-27T06:56:41;21.40;;;6.88;;
29908;SDS011;36247;51.952;6.146;2023-05-27T06:59:25;23.15;;;7.68;;
29908;SDS011;36247;51.952;6.146;2023-05-27T07:01:51;23.60;;;6.88;;
29908;SDS011;36247;51.952;6.146;2023-05-27T07:04:16;22.60;;;7.47;;
29908;SDS011;36247;51.952;6.146;2023-05-27T07:06:53;33.55;;;9.98;;
29908;SDS011;36247;51.952;6.146;2023-05-27T07:09:18;29.73;;;8.18;;
29908;SDS011;36247;51.952;6.146;2023-05-27T07:11:44;24.17;;;7.55;;
29908;SDS011;36247;51.952;6.146;2023-05-27T07:14:15;24.38;;;7.93;;
29908;SDS011;36247;51.952;6.146;2023-05-27T07:16:43;28.08;;;7.78;;
29908;SDS011;36247;51.952;6.146;2023-05-27T07:19:10;23.25;;;7.32;;
29908;SDS011;36247;51.952;6.146;2023-05-27T07:21:45;30.85;;;7.82;;
29908;SDS011;36247;51.952;6.146;2023-05-27T07:24:16;32.83;;;8.68;;
29908;SDS011;36247;51.952;6.146;2023-05-27T07:26:44;22.35;;;8.88;;
29908;SDS011;36247;51.952;6.146;2023-05-27T07:29:09;33.13;;;10.38;;
29908;SDS011;36247;51.952;6.146;2023-05-27T07:31:50;28.65;;;9.38;;
29908;SDS011;36247;51.952;6.146;2023-05-27T07:34:19;27.23;;;9.18;;
29908;SDS011;36247;51.952;6.146;2023-05-27T07:36:47;24.65;;;8.60;;
29908;SDS011;36247;51.952;6.146;2023-05-27T07:39:13;30.65;;;10.10;;
29908;SDS011;36247;51.952;6.146;2023-05-27T07:41:41;25.98;;;7.70;;
29908;SDS011;36247;51.952;6.146;2023-05-27T07:44:09;24.23;;;8.15;;
29908;SDS011;36247;51.952;6.146;2023-05-27T07:46:35;18.40;;;7.70;;
29908;SDS011;36247;51.952;6.146;2023-05-27T07:49:05;22.80;;;8.48;;
29908;SDS011;36247;51.952;6.146;2023-05-27T07:51:34;19.42;;;7.22;;
29908;SDS011;36247;51.952;6.146;2023-05-27T07:54:03;26.90;;;8.48;;
29908;SDS011;36247;51.952;6.146;2023-05-27T07:56:29;22.23;;;8.55;;
29908;SDS011;36247;51.952;6.146;2023-05-27T07:58:56;22.55;;;7.88;;
29908;SDS011;36247;51.952;6.146;2023-05-27T08:01:22;17.30;;;7.82;;
29908;SDS011;36247;51.952;6.146;2023-05-27T08:03:51;27.75;;;9.23;;
29908;SDS011;36247;51.952;6.146;2023-05-27T08:06:30;23.20;;;8.07;;
29908;SDS011;36247;51.952;6.146;2023-05-27T08:09:09;28.90;;;9.27;;
29908;SDS011;36247;51.952;6.146;2023-05-27T08:11:54;23.83;;;9.65;;
29908;SDS011;36247;51.952;6.146;2023-05-27T08:14:55;23.13;;;9.18;;
29908;SDS011;36247;51.952;6.146;2023-05-27T08:17:45;24.13;;;9.52;;
29908;SDS011;36247;51.952;6.146;2023-05-27T08:20:17;23.75;;;8.82;;
29908;SDS011;36247;51.952;6.146;2023-05-27T08:22:49;28.05;;;9.38;;
29908;SDS011;36247;51.952;6.146;2023-05-27T08:25:35;27.00;;;10.25;;
29908;SDS011;36247;51.952;6.146;2023-05-27T08:28:18;23.45;;;8.55;;
29908;SDS011;36247;51.952;6.146;2023-05-27T08:30:44;27.13;;;10.20;;
29908;SDS011;36247;51.952;6.146;2023-05-27T08:33:17;32.45;;;10.20;;
29908;SDS011;36247;51.952;6.146;2023-05-27T08:35:43;23.15;;;9.57;;
29908;SDS011;36247;51.952;6.146;2023-05-27T08:38:10;24.83;;;9.52;;
29908;SDS011;36247;51.952;6.146;2023-05-27T08:40:40;24.58;;;9.15;;
29908;SDS011;36247;51.952;6.146;2023-05-27T08:43:09;30.63;;;9.13;;
29908;SDS011;36247;51.952;6.146;2023-05-27T08:45:40;24.00;;;9.50;;
29908;SDS011;36247;51.952;6.146;2023-05-27T08:48:08;24.25;;;8.38;;
29908;SDS011;36247;51.952;6.146;2023-05-27T08:50:38;22.83;;;9.38;;
29908;SDS011;36247;51.952;6.146;2023-05-27T08:53:04;27.77;;;9.02;;
29908;SDS011;36247;51.952;6.146;2023-05-27T08:55:35;22.95;;;9.35;;
29908;SDS011;36247;51.952;6.146;2023-05-27T08:58:08;22.58;;;8.90;;
29908;SDS011;36247;51.952;6.146;2023-05-27T09:00:40;28.88;;;9.18;;
29908;SDS011;36247;51.952;6.146;2023-05-27T09:03:18;21.35;;;9.05;;
29908;SDS011;36247;51.952;6.146;2023-05-27T09:05:44;22.65;;;8.43;;
29908;SDS011;36247;51.952;6.146;2023-05-27T09:08:11;25.92;;;9.00;;
29908;SDS011;36247;51.952;6.146;2023-05-27T09:10:38;26.38;;;9.27;;
29908;SDS011;36247;51.952;6.146;2023-05-27T09:13:05;26.77;;;9.80;;
29908;SDS011;36247;51.952;6.146;2023-05-27T09:15:35;23.65;;;8.85;;
29908;SDS011;36247;51.952;6.146;2023-05-27T09:18:05;25.17;;;9.48;;
29908;SDS011;36247;51.952;6.146;2023-05-27T09:20:34;22.33;;;8.25;;
29908;SDS011;36247;51.952;6.146;2023-05-27T09:23:03;24.35;;;9.40;;
29908;SDS011;36247;51.952;6.146;2023-05-27T09:25:35;19.95;;;9.32;;
29908;SDS011;36247;51.952;6.146;2023-05-27T09:28:00;25.25;;;8.68;;
29908;SDS011;36247;51.952;6.146;2023-05-27T09:30:35;20.08;;;7.88;;
29908;SDS011;36247;51.952;6.146;2023-05-27T09:33:03;23.75;;;8.75;;
29908;SDS011;36247;51.952;6.146;2023-05-27T09:35:29;24.80;;;8.73;;
29908;SDS011;36247;51.952;6.146;2023-05-27T09:38:04;20.27;;;8.82;;
29908;SDS011;36247;51.952;6.146;2023-05-27T09:40:30;26.98;;;9.02;;
29908;SDS011;36247;51.952;6.146;2023-05-27T09:42:56;20.08;;;8.90;;
29908;SDS011;36247;51.952;6.146;2023-05-27T09:45:22;24.40;;;8.77;;
29908;SDS011;36247;51.952;6.146;2023-05-27T09:47:48;24.58;;;9.10;;
29908;SDS011;36247;51.952;6.146;2023-05-27T09:52:47;20.83;;;9.45;;
29908;SDS011;36247;51.952;6.146;2023-05-27T09:55:14;22.75;;;8.52;;
29908;SDS011;36247;51.952;6.146;2023-05-27T09:57:43;19.90;;;8.27;;
29908;SDS011;36247;51.952;6.146;2023-05-27T10:00:10;23.80;;;8.23;;
29908;SDS011;36247;51.952;6.146;2023-05-27T10:02:39;25.33;;;8.70;;
29908;SDS011;36247;51.952;6.146;2023-05-27T10:05:11;27.70;;;9.40;;
29908;SDS011;36247;51.952;6.146;2023-05-27T10:07:48;22.38;;;9.40;;
29908;SDS011;36247;51.952;6.146;2023-05-27T10:10:18;26.98;;;9.15;;
29908;SDS011;36247;51.952;6.146;2023-05-27T10:12:46;26.10;;;8.77;;
29908;SDS011;36247;51.952;6.146;2023-05-27T10:15:28;24.42;;;8.23;;
29908;SDS011;36247;51.952;6.146;2023-05-27T10:18:04;19.98;;;7.57;;
29908;SDS011;36247;51.952;6.146;2023-05-27T10:20:41;25.65;;;8.88;;
29908;SDS011;36247;51.952;6.146;2023-05-27T10:23:14;20.95;;;7.05;;
29908;SDS011;36247;51.952;6.146;2023-05-27T10:25:54;20.75;;;7.20;;
29908;SDS011;36247;51.952;6.146;2023-05-27T10:30:51;20.95;;;8.00;;
29908;SDS011;36247;51.952;6.146;2023-05-27T10:33:39;20.42;;;8.13;;
29908;SDS011;36247;51.952;6.146;2023-05-27T10:36:27;22.13;;;7.90;;
29908;SDS011;36247;51.952;6.146;2023-05-27T10:39:04;23.65;;;7.88;;
29908;SDS011;36247;51.952;6.146;2023-05-27T10:41:39;26.20;;;7.80;;
29908;SDS011;36247;51.952;6.146;2023-05-27T10:44:11;24.33;;;9.25;;
29908;SDS011;36247;51.952;6.146;2023-05-27T10:46:38;23.05;;;7.18;;
29908;SDS011;36247;51.952;6.146;2023-05-27T10:49:21;20.15;;;7.50;;
29908;SDS011;36247;51.952;6.146;2023-05-27T10:51:48;14.77;;;6.78;;
29908;SDS011;36247;51.952;6.146;2023-05-27T10:54:17;17.75;;;6.53;;
29908;SDS011;36247;51.952;6.146;2023-05-27T10:56:52;21.52;;;7.07;;
29908;SDS011;36247;51.952;6.146;2023-05-27T10:59:20;17.88;;;6.72;;
29908;SDS011;36247;51.952;6.146;2023-05-27T11:01:50;16.17;;;7.03;;
29908;SDS011;36247;51.952;6.146;2023-05-27T11:04:18;15.82;;;6.22;;
29908;SDS011;36247;51.952;6.146;2023-05-27T11:06:59;18.85;;;6.70;;
29908;SDS011;36247;51.952;6.146;2023-05-27T11:09:26;16.10;;;6.75;;
29908;SDS011;36247;51.952;6.146;2023-05-27T11:11:54;17.98;;;7.05;;
29908;SDS011;36247;51.952;6.146;2023-05-27T11:14:21;12.32;;;6.05;;
29908;SDS011;36247;51.952;6.146;2023-05-27T11:16:47;21.80;;;6.55;;
29908;SDS011;36247;51.952;6.146;2023-05-27T11:19:17;15.75;;;6.25;;
29908;SDS011;36247;51.952;6.146;2023-05-27T11:21:44;14.90;;;6.20;;
29908;SDS011;36247;51.952;6.146;2023-05-27T11:24:16;14.57;;;5.72;;
29908;SDS011;36247;51.952;6.146;2023-05-27T11:26:43;14.75;;;6.45;;
29908;SDS011;36247;51.952;6.146;2023-05-27T11:29:13;19.67;;;7.05;;
29908;SDS011;36247;51.952;6.146;2023-05-27T11:31:41;17.63;;;6.38;;
29908;SDS011;36247;51.952;6.146;2023-05-27T11:34:16;19.80;;;6.75;;
29908;SDS011;36247;51.952;6.146;2023-05-27T11:36:47;17.35;;;6.32;;
29908;SDS011;36247;51.952;6.146;2023-05-27T11:39:15;16.85;;;6.07;;
29908;SDS011;36247;51.952;6.146;2023-05-27T11:41:48;14.80;;;6.20;;
29908;SDS011;36247;51.952;6.146;2023-05-27T11:44:15;23.83;;;6.63;;
29908;SDS011;36247;51.952;6.146;2023-05-27T11:46:43;17.10;;;5.78;;
29908;SDS011;36247;51.952;6.146;2023-05-27T11:49:11;18.92;;;6.00;;
29908;SDS011;36247;51.952;6.146;2023-05-27T11:51:40;23.35;;;6.95;;
29908;SDS011;36247;51.952;6.146;2023-05-27T11:54:22;14.35;;;5.88;;
29908;SDS011;36247;51.952;6.146;2023-05-27T11:56:49;15.80;;;6.40;;
29908;SDS011;36247;51.952;6.146;2023-05-27T11:59:16;15.05;;;6.30;;
29908;SDS011;36247;51.952;6.146;2023-05-27T12:01:44;14.10;;;6.82;;
29908;SDS011;36247;51.952;6.146;2023-05-27T12:04:10;14.82;;;5.70;;
29908;SDS011;36247;51.952;6.146;2023-05-27T12:06:37;17.15;;;6.57;;
29908;SDS011;36247;51.952;6.146;2023-05-27T12:09:04;15.43;;;6.22;;
29908;SDS011;36247;51.952;6.146;2023-05-27T12:11:30;17.65;;;6.38;;
29908;SDS011;36247;51.952;6.146;2023-05-27T12:13:57;16.80;;;5.93;;
29908;SDS011;36247;51.952;6.146;2023-05-27T12:16:22;20.98;;;5.75;;
29908;SDS011;36247;51.952;6.146;2023-05-27T12:18:54;16.48;;;6.40;;
29908;SDS011;36247;51.952;6.146;2023-05-27T12:21:20;17.92;;;6.45;;
29908;SDS011;36247;51.952;6.146;2023-05-27T12:23:47;15.82;;;6.95;;
29908;SDS011;36247;51.952;6.146;2023-05-27T12:26:14;21.20;;;7.07;;
29908;SDS011;36247;51.952;6.146;2023-05-27T12:28:41;15.02;;;6.57;;
29908;SDS011;36247;51.952;6.146;2023-05-27T12:31:09;19.33;;;7.57;;
29908;SDS011;36247;51.952;6.146;2023-05-27T12:33:34;19.33;;;6.35;;
29908;SDS011;36247;51.952;6.146;2023-05-27T12:36:07;16.27;;;5.78;;
29908;SDS011;36247;51.952;6.146;2023-05-27T12:38:38;14.55;;;5.95;;
29908;SDS011;36247;51.952;6.146;2023-05-27T12:41:04;18.05;;;6.60;;
29908;SDS011;36247;51.952;6.146;2023-05-27T12:43:29;16.02;;;5.80;;
29908;SDS011;36247;51.952;6.146;2023-05-27T12:45:55;16.10;;;6.20;;
29908;SDS011;36247;51.952;6.146;2023-05-27T12:48:21;13.45;;;6.15;;
29908;SDS011;36247;51.952;6.146;2023-05-27T12:50:48;15.43;;;6.40;;
29908;SDS011;36247;51.952;6.146;2023-05-27T12:53:13;13.23;;;6.47;;
29908;SDS011;36247;51.952;6.146;2023-05-27T12:55:41;16.35;;;6.40;;
29908;SDS011;36247;51.952;6.146;2023-05-27T12:58:09;18.73;;;6.57;;
29908;SDS011;36247;51.952;6.146;2023-05-27T13:00:35;17.35;;;7.10;;
29908;SDS011;36247;51.952;6.146;2023-05-27T13:03:04;19.27;;;6.85;;
29908;SDS011;36247;51.952;6.146;2023-05-27T13:05:29;14.95;;;6.10;;
29908;SDS011;36247;51.952;6.146;2023-05-27T13:07:56;15.55;;;6.38;;
29908;SDS011;36247;51.952;6.146;2023-05-27T13:10:25;13.90;;;5.88;;
29908;SDS011;36247;51.952;6.146;2023-05-27T13:12:51;12.00;;;5.88;;
29908;SDS011;36247;51.952;6.146;2023-05-27T13:15:20;15.02;;;5.88;;
29908;SDS011;36247;51.952;6.146;2023-05-27T13:17:48;12.40;;;6.18;;
29908;SDS011;36247;51.952;6.146;2023-05-27T13:20:15;12.38;;;6.18;;
29908;SDS011;36247;51.952;6.146;2023-05-27T13:22:41;14.05;;;6.63;;
29908;SDS011;36247;51.952;6.146;2023-05-27T13:25:09;19.17;;;5.97;;
29908;SDS011;36247;51.952;6.146;2023-05-27T13:27:38;12.77;;;6.40;;
29908;SDS011;36247;51.952;6.146;2023-05-27T13:30:08;14.65;;;6.15;;
29908;SDS011;36247;51.952;6.146;2023-05-27T13:32:34;14.57;;;6.35;;
29908;SDS011;36247;51.952;6.146;2023-05-27T13:35:01;17.90;;;6.75;;
29908;SDS011;36247;51.952;6.146;2023-05-27T13:37:27;14.10;;;6.28;;
29908;SDS011;36247;51.952;6.146;2023-05-27T13:39:53;15.63;;;5.97;;
29908;SDS011;36247;51.952;6.146;2023-05-27T13:42:18;14.85;;;6.18;;
29908;SDS011;36247;51.952;6.146;2023-05-27T13:44:44;17.40;;;6.25;;
29908;SDS011;36247;51.952;6.146;2023-05-27T13:47:10;13.30;;;6.57;;
29908;SDS011;36247;51.952;6.146;2023-05-27T13:49:35;14.88;;;6.13;;
29908;SDS011;36247;51.952;6.146;2023-05-27T13:52:04;14.15;;;5.90;;
29908;SDS011;36247;51.952;6.146;2023-05-27T13:54:29;17.73;;;6.53;;
29908;SDS011;36247;51.952;6.146;2023-05-27T13:56:55;15.77;;;6.63;;
29908;SDS011;36247;51.952;6.146;2023-05-27T13:59:20;18.60;;;6.80;;
29908;SDS011;36247;51.952;6.146;2023-05-27T14:01:47;12.80;;;6.22;;
29908;SDS011;36247;51.952;6.146;2023-05-27T14:04:15;15.02;;;6.03;;
29908;SDS011;36247;51.952;6.146;2023-05-27T14:06:43;14.70;;;6.03;;
29908;SDS011;36247;51.952;6.146;2023-05-27T14:09:09;15.75;;;6.45;;
29908;SDS011;36247;51.952;6.146;2023-05-27T14:11:36;13.25;;;6.22;;
29908;SDS011;36247;51.952;6.146;2023-05-27T14:14:04;17.20;;;6.40;;
29908;SDS011;36247;51.952;6.146;2023-05-27T14:16:32;14.25;;;6.22;;
29908;SDS011;36247;51.952;6.146;2023-05-27T14:18:57;12.88;;;6.15;;
29908;SDS011;36247;51.952;6.146;2023-05-27T14:21:23;15.98;;;6.95;;
29908;SDS011;36247;51.952;6.146;2023-05-27T14:23:49;15.20;;;5.80;;
29908;SDS011;36247;51.952;6.146;2023-05-27T14:26:15;10.68;;;5.75;;
29908;SDS011;36247;51.952;6.146;2023-05-27T14:28:41;16.17;;;6.25;;
29908;SDS011;36247;51.952;6.146;2023-05-27T14:31:08;14.23;;;6.30;;
29908;SDS011;36247;51.952;6.146;2023-05-27T14:33:34;17.38;;;6.28;;
29908;SDS011;36247;51.952;6.146;2023-05-27T14:35:59;12.23;;;5.38;;
29908;SDS011;36247;51.952;6.146;2023-05-27T14:38:25;15.82;;;5.90;;
29908;SDS011;36247;51.952;6.146;2023-05-27T14:40:50;16.10;;;6.25;;
29908;SDS011;36247;51.952;6.146;2023-05-27T14:43:16;17.63;;;6.43;;
29908;SDS011;36247;51.952;6.146;2023-05-27T14:45:43;12.48;;;6.45;;
29908;SDS011;36247;51.952;6.146;2023-05-27T14:48:09;13.68;;;6.15;;
29908;SDS011;36247;51.952;6.146;2023-05-27T14:50:35;17.70;;;6.25;;
29908;SDS011;36247;51.952;6.146;2023-05-27T14:53:02;11.85;;;5.80;;
29908;SDS011;36247;51.952;6.146;2023-05-27T14:55:28;14.23;;;6.13;;